createdAt,value
2023-02-14T00:00:50.438Z,102509.56
2023-02-14T00:03:27.670Z,102489.47
2023-02-14T00:05:54.940Z,102526.81
2023-02-14T00:08:21.908Z,102546.81
2023-02-14T00:10:49.769Z,102550.22
2023-02-14T00:13:18.134Z,102545.09
2023-02-14T00:15:46.434Z,102534.78
2023-02-14T00:18:13.993Z,102530.53
2023-02-14T00:20:41.198Z,102540.25
2023-02-14T00:23:08.534Z,102541.09
2023-02-14T00:25:36.300Z,102515.38
2023-02-14T00:28:03.262Z,102549.81
2023-02-14T00:30:32.106Z,102542.66
2023-02-14T00:32:59.272Z,102510.56
2023-02-14T00:35:26.569Z,102495.81
2023-02-14T00:37:53.745Z,102550.91
2023-02-14T00:40:21.297Z,102519.78
2023-02-14T00:42:48.180Z,102549.84
2023-02-14T00:45:19.077Z,102533.84
2023-02-14T00:47:47.550Z,102531.19
2023-02-14T00:50:15.189Z,102536.25
2023-02-14T00:52:42.406Z,102540.47
2023-02-14T00:55:09.911Z,102543.34
2023-02-14T00:57:36.891Z,102531.28
2023-02-14T01:00:05.763Z,102541.69
2023-02-14T01:02:33.148Z,102511.97
2023-02-14T01:05:01.826Z,102525.56
2023-02-14T01:07:29.091Z,102497.09
2023-02-14T01:09:56.413Z,102510.81
2023-02-14T01:12:23.346Z,102517.69
2023-02-14T01:14:50.606Z,102523.56
2023-02-14T01:17:17.869Z,102514.88
2023-02-14T01:19:45.379Z,102495.09
2023-02-14T01:22:13.853Z,102459.88
2023-02-14T01:24:41.316Z,102443.84
2023-02-14T01:27:08.399Z,102496.66
2023-02-14T01:29:35.794Z,102501.09
2023-02-14T01:32:03.169Z,102486.81
2023-02-14T01:34:30.635Z,102454.22
2023-02-14T01:36:57.802Z,102499.91
2023-02-14T01:39:26.854Z,102462.78
2023-02-14T01:41:55.857Z,102493.75
2023-02-14T01:44:55.128Z,102484.97
2023-02-14T01:47:22.981Z,102485.13
2023-02-14T01:49:55.912Z,102461.13
2023-02-14T01:52:29.655Z,102488.88
2023-02-14T01:55:01.897Z,102484.69
2023-02-14T01:57:35.114Z,102469.81
2023-02-14T02:00:21.761Z,102479.41
2023-02-14T02:02:49.547Z,102432.75
2023-02-14T02:05:23.570Z,102459.31
2023-02-14T02:07:51.713Z,102426.09
2023-02-14T02:10:20.424Z,102418.22
2023-02-14T02:12:49.560Z,102467.44
2023-02-14T02:15:17.127Z,102430.34
2023-02-14T02:17:53.106Z,102433.63
2023-02-14T02:20:50.781Z,102462.34
2023-02-14T02:23:57.464Z,102453.38
2023-02-14T02:27:08.381Z,102412.63
2023-02-14T02:30:12.671Z,102439.00
2023-02-14T02:33:14.135Z,102445.78
2023-02-14T02:36:13.829Z,102407.03
2023-02-14T02:38:55.613Z,102449.28
2023-02-14T02:41:32.769Z,102398.13
2023-02-14T02:44:07.794Z,102430.69
2023-02-14T02:46:48.501Z,102417.72
2023-02-14T02:49:44.814Z,102455.66
2023-02-14T02:52:47.640Z,102432.03
2023-02-14T02:55:24.883Z,102431.59
2023-02-14T02:57:53.849Z,102442.06
2023-02-14T03:00:23.924Z,102409.16
2023-02-14T03:03:14.018Z,102425.06
2023-02-14T03:05:42.568Z,102432.00
2023-02-14T03:08:09.654Z,102415.31
2023-02-14T03:10:39.736Z,102431.69
2023-02-14T03:13:51.529Z,102423.44
2023-02-14T03:16:33.383Z,102439.91
2023-02-14T03:19:27.021Z,102447.00
2023-02-14T03:21:59.426Z,102445.31
2023-02-14T03:24:37.057Z,102446.25
2023-02-14T03:27:11.962Z,102410.09
2023-02-14T03:29:51.324Z,102439.19
2023-02-14T03:32:25.008Z,102433.78
2023-02-14T03:34:55.913Z,102403.75
2023-02-14T03:37:29.725Z,102429.59
2023-02-14T03:40:05.356Z,102391.88
2023-02-14T03:42:39.013Z,102437.69
2023-02-14T03:45:11.068Z,102440.41
2023-02-14T03:47:42.627Z,102449.28
2023-02-14T03:50:14.822Z,102400.44
2023-02-14T03:52:44.217Z,102418.50
2023-02-14T03:55:15.236Z,102433.03
2023-02-14T03:57:52.950Z,102431.25
2023-02-14T04:00:20.476Z,102408.19
2023-02-14T04:02:53.196Z,102395.13
2023-02-14T04:05:24.562Z,102446.19
2023-02-14T04:07:54.309Z,102427.34
2023-02-14T04:10:22.489Z,102393.09
2023-02-14T04:12:51.622Z,102401.84
2023-02-14T04:15:18.729Z,102405.22
2023-02-14T04:18:04.276Z,102426.06
2023-02-14T04:20:31.315Z,102437.00
2023-02-14T04:22:58.757Z,102442.91
2023-02-14T04:25:26.366Z,102444.59
2023-02-14T04:27:55.125Z,102416.34
2023-02-14T04:30:22.947Z,102401.94
2023-02-14T04:32:50.534Z,102444.25
2023-02-14T04:35:17.726Z,102425.78
2023-02-14T04:37:45.692Z,102393.03
2023-02-14T04:40:17.062Z,102386.06
2023-02-14T04:42:44.896Z,102421.16
2023-02-14T04:45:13.977Z,102387.59
2023-02-14T04:47:41.542Z,102366.72
2023-02-14T04:50:09.227Z,102387.16
2023-02-14T04:52:36.656Z,102398.56
2023-02-14T04:55:04.490Z,102379.69
2023-02-14T04:57:31.832Z,102434.97
2023-02-14T04:59:58.973Z,102396.06
2023-02-14T05:02:27.696Z,102430.25
2023-02-14T05:04:54.653Z,102431.41
2023-02-14T05:07:21.919Z,102391.63
2023-02-14T05:09:49.137Z,102402.28
2023-02-14T05:12:17.076Z,102423.44
2023-02-14T05:14:44.036Z,102441.63
2023-02-14T05:17:11.564Z,102428.38
2023-02-14T05:19:40.190Z,102425.22
2023-02-14T05:22:07.612Z,102401.97
2023-02-14T05:24:34.661Z,102397.75
2023-02-14T05:27:02.040Z,102446.09
2023-02-14T05:29:29.089Z,102445.97
2023-02-14T05:31:57.324Z,102454.03
2023-02-14T05:34:24.421Z,102461.00
2023-02-14T05:36:54.890Z,102423.88
2023-02-14T05:39:21.987Z,102465.50
2023-02-14T05:41:49.228Z,102412.97
2023-02-14T05:44:16.231Z,102462.22
2023-02-14T05:46:43.866Z,102425.28
2023-02-14T05:49:10.898Z,102421.88
2023-02-14T05:51:38.145Z,102457.50
2023-02-14T05:54:06.551Z,102465.44
2023-02-14T05:56:34.121Z,102472.63
2023-02-14T05:59:01.445Z,102472.75
2023-02-14T06:01:28.666Z,102488.63
2023-02-14T06:03:56.007Z,102485.13
2023-02-14T06:06:23.560Z,102477.53
2023-02-14T06:08:50.841Z,102480.19
2023-02-14T06:11:19.592Z,102479.16
2023-02-14T06:13:46.521Z,102443.50
2023-02-14T06:16:13.840Z,102453.28
2023-02-14T06:18:40.991Z,102458.44
2023-02-14T06:21:08.342Z,102426.88
2023-02-14T06:23:35.368Z,102419.56
2023-02-14T06:26:03.726Z,102406.59
2023-02-14T06:28:32.148Z,102448.53
2023-02-14T06:30:59.862Z,102461.59
2023-02-14T06:33:27.006Z,102474.91
2023-02-14T06:35:54.665Z,102435.09
2023-02-14T06:38:21.773Z,102466.94
2023-02-14T06:40:48.996Z,102427.63
2023-02-14T06:43:16.072Z,102423.59
2023-02-14T06:45:46.689Z,102444.19
2023-02-14T06:48:13.736Z,102430.97
2023-02-14T06:50:41.206Z,102474.63
2023-02-14T06:53:08.121Z,102475.41
2023-02-14T06:55:35.544Z,102481.28
2023-02-14T06:58:02.569Z,102474.97
2023-02-14T07:00:30.226Z,102463.19
2023-02-14T07:02:58.680Z,102477.50
2023-02-14T07:05:26.165Z,102473.56
2023-02-14T07:07:53.662Z,102489.50
2023-02-14T07:10:21.134Z,102491.16
2023-02-14T07:12:48.292Z,102449.03
2023-02-14T07:15:16.118Z,102493.91
2023-02-14T07:17:43.523Z,102486.28
2023-02-14T07:20:13.264Z,102483.75
2023-02-14T07:22:40.549Z,102472.59
2023-02-14T07:25:08.773Z,102485.59
2023-02-14T07:27:36.411Z,102479.41
2023-02-14T07:30:04.767Z,102468.44
2023-02-14T07:32:32.462Z,102479.81
2023-02-14T07:34:59.619Z,102477.16
2023-02-14T07:37:28.478Z,102483.91
2023-02-14T07:39:55.497Z,102447.38
2023-02-14T07:42:22.861Z,102484.63
2023-02-14T07:44:49.774Z,102485.91
2023-02-14T07:47:17.254Z,102446.81
2023-02-14T07:49:44.270Z,102444.06
2023-02-14T07:52:11.556Z,102426.81
2023-02-14T07:54:40.061Z,102433.81
2023-02-14T07:57:07.445Z,102444.66
2023-02-14T07:59:34.543Z,102476.81
2023-02-14T08:02:01.868Z,102420.50
2023-02-14T08:04:29.225Z,102438.28
2023-02-14T08:06:56.839Z,102469.13
2023-02-14T08:09:26.721Z,102469.25
2023-02-14T08:12:15.790Z,102476.66
2023-02-14T08:14:43.877Z,102472.25
2023-02-14T08:17:13.416Z,102435.09
2023-02-14T08:19:40.520Z,102464.84
2023-02-14T08:22:08.591Z,102452.66
2023-02-14T08:24:35.849Z,102472.00
2023-02-14T08:27:04.972Z,102432.94
2023-02-14T08:29:31.962Z,102458.53
2023-02-14T08:32:00.477Z,102425.41
2023-02-14T08:34:27.629Z,102459.63
2023-02-14T08:36:55.102Z,102433.69
2023-02-14T08:39:22.336Z,102451.00
2023-02-14T08:41:49.811Z,102435.16
2023-02-14T08:44:18.354Z,102431.13
2023-02-14T08:46:46.112Z,102456.94
2023-02-14T08:49:13.125Z,102457.19
2023-02-14T08:51:40.649Z,102425.97
2023-02-14T08:54:07.850Z,102413.28
2023-02-14T08:56:36.596Z,102450.63
2023-02-14T08:59:04.117Z,102457.31
2023-02-14T09:01:34.124Z,102442.00
2023-02-14T09:04:02.033Z,102447.28
2023-02-14T09:06:30.086Z,102417.03
2023-02-14T09:08:57.118Z,102455.50
2023-02-14T09:11:25.685Z,102451.28
2023-02-14T09:13:54.871Z,102436.41
2023-02-14T09:16:23.123Z,102439.06
2023-02-14T09:18:53.082Z,102475.81
2023-02-14T09:21:23.607Z,102470.31
2023-02-14T09:23:50.986Z,102473.13
2023-02-14T09:26:18.603Z,102458.31
2023-02-14T09:28:46.972Z,102477.75
2023-02-14T09:31:16.868Z,102483.22
2023-02-14T09:33:45.188Z,102450.41
2023-02-14T09:36:32.640Z,102478.38
2023-02-14T09:38:59.664Z,102470.31
2023-02-14T09:42:14.884Z,102437.91
2023-02-14T09:44:45.339Z,102430.91
2023-02-14T09:47:22.117Z,102467.91
2023-02-14T09:49:51.388Z,102471.31
2023-02-14T09:52:22.577Z,102462.00
2023-02-14T09:54:55.247Z,102462.69
2023-02-14T09:57:28.928Z,102470.03
2023-02-14T10:00:03.644Z,102469.09
2023-02-14T10:02:40.813Z,102476.63
2023-02-14T10:05:15.312Z,102474.38
2023-02-14T10:08:00.566Z,102473.97
2023-02-14T10:10:37.151Z,102453.00
2023-02-14T10:13:13.954Z,102438.28
2023-02-14T10:15:45.383Z,102453.16
2023-02-14T10:18:16.657Z,102466.13
2023-02-14T10:20:46.127Z,102450.44
2023-02-14T10:23:27.308Z,102444.88
2023-02-14T10:25:59.721Z,102467.06
2023-02-14T10:28:31.781Z,102440.94
2023-02-14T10:31:11.034Z,102464.69
2023-02-14T10:33:42.269Z,102464.44
2023-02-14T10:36:19.972Z,102455.16
2023-02-14T10:38:58.236Z,102421.53
2023-02-14T10:41:31.970Z,102457.63
2023-02-14T10:44:13.539Z,102464.69
2023-02-14T10:46:49.512Z,102428.44
2023-02-14T10:49:40.592Z,102423.31
2023-02-14T10:52:15.636Z,102445.47
2023-02-14T10:54:51.111Z,102455.31
2023-02-14T10:57:23.649Z,102458.75
2023-02-14T10:59:54.711Z,102416.34
2023-02-14T11:02:25.738Z,102458.50
2023-02-14T11:04:53.560Z,102450.16
2023-02-14T11:07:21.873Z,102418.94
2023-02-14T11:09:50.581Z,102411.66
2023-02-14T11:12:37.542Z,102409.53
2023-02-14T11:15:19.544Z,102436.28
2023-02-14T11:17:46.771Z,102435.59
2023-02-14T11:20:24.385Z,102419.59
2023-02-14T11:22:51.420Z,102400.94
2023-02-14T11:25:22.678Z,102430.69
2023-02-14T11:27:57.809Z,102435.97
2023-02-14T11:30:30.474Z,102431.69
2023-02-14T11:32:57.772Z,102431.59
2023-02-14T11:35:33.727Z,102404.91
2023-02-14T11:38:02.386Z,102401.72
2023-02-14T11:40:33.518Z,102424.56
2023-02-14T11:43:17.606Z,102431.84
2023-02-14T11:45:47.731Z,102430.75
2023-02-14T11:48:31.488Z,102419.53
2023-02-14T11:51:06.625Z,102408.31
2023-02-14T11:53:45.710Z,102417.34
2023-02-14T11:56:17.605Z,102386.78
2023-02-14T11:58:50.731Z,102421.13
2023-02-14T12:01:24.250Z,102377.63
2023-02-14T12:03:53.368Z,102414.63
2023-02-14T12:06:24.966Z,102408.50
2023-02-14T12:08:52.299Z,102409.94
2023-02-14T12:11:23.945Z,102386.97
2023-02-14T12:13:55.281Z,102406.41
2023-02-14T12:16:29.569Z,102392.56
2023-02-14T12:19:03.165Z,102392.94
2023-02-14T12:21:46.345Z,102379.78
2023-02-14T12:24:21.955Z,102345.03
2023-02-14T12:27:00.277Z,102353.06
2023-02-14T12:29:33.258Z,102377.28
2023-02-14T12:32:05.880Z,102348.00
2023-02-14T12:34:33.908Z,102347.94
2023-02-14T12:37:28.789Z,102371.72
2023-02-14T12:40:09.317Z,102372.47
2023-02-14T12:42:54.202Z,102370.84
2023-02-14T12:45:31.342Z,102372.56
2023-02-14T12:48:14.056Z,102370.25
2023-02-14T12:50:50.763Z,102344.69
2023-02-14T12:53:35.618Z,102360.44
2023-02-14T12:56:14.107Z,102361.28
2023-02-14T12:58:50.224Z,102364.88
2023-02-14T13:01:38.786Z,102359.97
2023-02-14T13:04:32.064Z,102362.75
2023-02-14T13:07:09.342Z,102344.34
2023-02-14T13:09:47.697Z,102360.38
2023-02-14T13:12:29.443Z,102338.53
2023-02-14T13:15:11.697Z,102360.66
2023-02-14T13:17:43.856Z,102309.19
2023-02-14T13:20:38.432Z,102318.50
2023-02-14T13:23:11.910Z,102354.59
2023-02-14T13:25:42.872Z,102348.66
2023-02-14T13:28:13.900Z,102343.06
2023-02-14T13:30:43.275Z,102341.25
2023-02-14T13:33:22.860Z,102352.94
2023-02-14T13:35:53.692Z,102315.59
2023-02-14T13:38:21.449Z,102314.94
2023-02-14T13:40:49.693Z,102347.97
2023-02-14T13:43:47.637Z,102334.72
2023-02-14T13:46:18.535Z,102347.88
2023-02-14T13:49:00.457Z,102346.69
2023-02-14T13:51:46.484Z,102336.56
2023-02-14T13:54:33.987Z,102350.31
2023-02-14T13:57:03.221Z,102354.69
2023-02-14T13:59:32.590Z,102317.56
2023-02-14T14:02:41.619Z,102345.81
2023-02-14T14:05:27.046Z,102353.91
2023-02-14T14:08:18.917Z,102354.00
2023-02-14T14:10:47.700Z,102343.66
2023-02-14T14:13:29.678Z,102351.94
2023-02-14T14:16:28.770Z,102299.09
2023-02-14T14:18:59.649Z,102306.53
2023-02-14T14:21:28.456Z,102353.16
2023-02-14T14:24:21.664Z,102349.72
2023-02-14T14:26:52.649Z,102312.88
2023-02-14T14:29:25.468Z,102347.22
2023-02-14T14:31:55.901Z,102305.34
2023-02-14T14:34:26.755Z,102306.53
2023-02-14T14:37:02.138Z,102340.28
2023-02-14T14:39:32.378Z,102334.53
2023-02-14T14:42:07.149Z,102349.28
2023-02-14T14:44:36.153Z,102303.34
2023-02-14T14:47:03.545Z,102340.63
2023-02-14T14:49:32.864Z,102315.50
2023-02-14T14:52:00.284Z,102320.53
2023-02-14T14:54:30.075Z,102334.75
2023-02-14T14:57:01.726Z,102340.38
2023-02-14T14:59:31.304Z,102302.06
2023-02-14T15:01:58.130Z,102327.84
2023-02-14T15:04:28.524Z,102324.13
2023-02-14T15:06:58.212Z,102293.38
2023-02-14T15:09:31.865Z,102339.34
2023-02-14T15:12:19.714Z,102337.16
2023-02-14T15:14:56.866Z,102332.69
2023-02-14T15:17:26.974Z,102314.84
2023-02-14T15:19:57.008Z,102352.19
2023-02-14T15:22:29.550Z,102342.38
2023-02-14T15:24:58.457Z,102339.69
2023-02-14T15:27:27.687Z,102349.34
2023-02-14T15:29:57.008Z,102334.03
2023-02-14T15:32:25.512Z,102355.63
2023-02-14T15:34:54.481Z,102305.03
2023-02-14T15:37:22.656Z,102321.06
2023-02-14T15:39:55.993Z,102313.44
2023-02-14T15:42:27.647Z,102354.53
2023-02-14T15:45:14.623Z,102353.03
2023-02-14T15:47:42.761Z,102316.63
2023-02-14T15:50:16.869Z,102317.03
2023-02-14T15:52:44.569Z,102374.66
2023-02-14T15:55:18.952Z,102337.28
2023-02-14T15:57:54.764Z,102361.78
2023-02-14T16:00:24.149Z,102339.78
2023-02-14T16:02:52.678Z,102380.22
2023-02-14T16:05:24.776Z,102369.34
2023-02-14T16:08:00.380Z,102361.16
2023-02-14T16:10:30.831Z,102386.38
2023-02-14T16:13:01.074Z,102379.19
2023-02-14T16:15:30.540Z,102357.84
2023-02-14T16:17:57.999Z,102347.59
2023-02-14T16:20:39.930Z,102350.59
2023-02-14T16:23:22.287Z,102376.59
2023-02-14T16:25:53.285Z,102399.41
2023-02-14T16:28:21.252Z,102367.97
2023-02-14T16:30:54.849Z,102407.75
2023-02-14T16:33:24.375Z,102397.47
2023-02-14T16:35:52.306Z,102402.97
2023-02-14T16:38:21.750Z,102398.03
2023-02-14T16:40:52.929Z,102360.69
2023-02-14T16:43:21.042Z,102392.13
2023-02-14T16:45:48.992Z,102358.13
2023-02-14T16:48:16.148Z,102367.75
2023-02-14T16:50:44.187Z,102421.28
2023-02-14T16:53:24.230Z,102410.91
2023-02-14T16:55:55.603Z,102413.69
2023-02-14T16:58:26.206Z,102417.59
2023-02-14T17:00:53.979Z,102370.81
2023-02-14T17:03:21.203Z,102427.72
2023-02-14T17:05:48.509Z,102421.72
2023-02-14T17:08:16.104Z,102384.94
2023-02-14T17:10:46.361Z,102421.22
2023-02-14T17:13:17.823Z,102430.13
2023-02-14T17:15:45.335Z,102388.28
2023-02-14T17:18:15.652Z,102432.97
2023-02-14T17:20:43.716Z,102433.09
2023-02-14T17:23:10.678Z,102426.50
2023-02-14T17:25:38.782Z,102397.34
2023-02-14T17:28:05.940Z,102390.63
2023-02-14T17:30:35.407Z,102395.28
2023-02-14T17:33:02.461Z,102384.31
2023-02-14T17:35:30.937Z,102405.22
2023-02-14T17:37:57.902Z,102440.72
2023-02-14T17:40:25.268Z,102421.50
2023-02-14T17:42:52.198Z,102450.59
2023-02-14T17:45:20.149Z,102448.03
2023-02-14T17:47:48.708Z,102457.03
2023-02-14T17:50:16.582Z,102457.13
2023-02-14T17:52:43.935Z,102458.16
2023-02-14T17:55:12.567Z,102456.50
2023-02-14T17:57:41.013Z,102467.06
2023-02-14T18:00:11.777Z,102462.03
2023-02-14T18:02:39.169Z,102415.00
2023-02-14T18:05:08.674Z,102441.63
2023-02-14T18:07:35.791Z,102458.22
2023-02-14T18:10:03.268Z,102424.09
2023-02-14T18:12:30.273Z,102457.50
2023-02-14T18:14:57.655Z,102423.97
2023-02-14T18:17:24.525Z,102424.81
2023-02-14T18:19:51.740Z,102424.09
2023-02-14T18:22:20.163Z,102424.31
2023-02-14T18:24:47.509Z,102461.97
2023-02-14T18:27:15.907Z,102446.34
2023-02-14T18:29:43.197Z,102426.63
2023-02-14T18:32:10.392Z,102460.81
2023-02-14T18:34:38.236Z,102451.28
2023-02-14T18:37:06.066Z,102452.16
2023-02-14T18:39:34.882Z,102413.34
2023-02-14T18:42:02.003Z,102432.28
2023-02-14T18:44:29.526Z,102464.66
2023-02-14T18:46:56.820Z,102402.88
2023-02-14T18:49:24.106Z,102461.78
2023-02-14T18:51:51.199Z,102458.16
2023-02-14T18:54:18.464Z,102415.06
2023-02-14T18:56:46.999Z,102409.97
2023-02-14T18:59:14.330Z,102422.78
2023-02-14T19:01:43.673Z,102458.66
2023-02-14T19:04:12.454Z,102426.13
2023-02-14T19:06:41.019Z,102428.63
2023-02-14T19:09:10.601Z,102453.63
2023-02-14T19:11:38.133Z,102424.28
2023-02-14T19:14:10.300Z,102424.19
2023-02-14T19:16:42.079Z,102424.84
2023-02-14T19:19:11.363Z,102464.34
2023-02-14T19:21:38.496Z,102431.66
2023-02-14T19:24:07.209Z,102447.94
2023-02-14T19:26:37.617Z,102418.47
2023-02-14T19:29:08.404Z,102453.69
2023-02-14T19:31:37.576Z,102458.63
2023-02-14T19:34:06.560Z,102446.66
2023-02-14T19:36:36.411Z,102463.56
2023-02-14T19:39:04.625Z,102427.41
2023-02-14T19:41:34.453Z,102464.97
2023-02-14T19:44:03.078Z,102414.25
2023-02-14T19:46:32.746Z,102450.00
2023-02-14T19:49:00.846Z,102419.34
2023-02-14T19:51:30.413Z,102419.47
2023-02-14T19:54:01.999Z,102433.06
2023-02-14T19:56:30.597Z,102461.28
2023-02-14T19:58:58.238Z,102420.00
2023-02-14T20:01:28.795Z,102460.22
2023-02-14T20:03:57.862Z,102427.19
2023-02-14T20:06:26.574Z,102453.56
2023-02-14T20:08:53.996Z,102457.47
2023-02-14T20:11:29.741Z,102419.75
2023-02-14T20:13:57.913Z,102453.34
2023-02-14T20:16:26.798Z,102457.00
2023-02-14T20:18:54.466Z,102446.50
2023-02-14T20:21:28.193Z,102459.84
2023-02-14T20:23:57.975Z,102466.31
2023-02-14T20:26:24.968Z,102423.34
2023-02-14T20:28:53.179Z,102466.31
2023-02-14T20:31:20.424Z,102428.66
2023-02-14T20:33:51.487Z,102420.94
2023-02-14T20:36:19.166Z,102465.63
2023-02-14T20:38:47.910Z,102469.31
2023-02-14T20:41:16.661Z,102446.88
2023-02-14T20:44:04.180Z,102429.91
2023-02-14T20:46:32.657Z,102418.66
2023-02-14T20:48:59.650Z,102447.63
2023-02-14T20:51:27.354Z,102459.69
2023-02-14T20:53:55.844Z,102461.53
2023-02-14T20:56:23.849Z,102450.09
2023-02-14T20:58:51.397Z,102449.06
2023-02-14T21:01:20.775Z,102417.38
2023-02-14T21:03:52.460Z,102418.16
2023-02-14T21:06:22.090Z,102448.03
2023-02-14T21:08:49.478Z,102430.91
2023-02-14T21:11:19.970Z,102439.31
2023-02-14T21:13:47.207Z,102387.59
2023-02-14T21:16:17.414Z,102439.06
2023-02-14T21:18:48.591Z,102409.16
2023-02-14T21:21:21.912Z,102391.81
2023-02-14T21:23:49.531Z,102405.34
2023-02-14T21:26:19.745Z,102411.41
2023-02-14T21:28:47.283Z,102413.78
2023-02-14T21:31:17.325Z,102444.47
2023-02-14T21:33:44.386Z,102434.28
2023-02-14T21:36:12.894Z,102396.38
2023-02-14T21:38:40.099Z,102404.69
2023-02-14T21:41:09.522Z,102402.97
2023-02-14T21:43:39.326Z,102412.09
2023-02-14T21:46:07.857Z,102404.91
2023-02-14T21:48:53.868Z,102399.09
2023-02-14T21:51:21.756Z,102426.53
2023-02-14T21:53:49.713Z,102380.88
2023-02-14T21:56:19.819Z,102448.66
2023-02-14T21:58:49.896Z,102450.31
2023-02-14T22:01:18.982Z,102451.03
2023-02-14T22:03:46.228Z,102418.41
2023-02-14T22:06:13.853Z,102405.34
2023-02-14T22:08:41.585Z,102414.72
2023-02-14T22:11:11.123Z,102427.66
2023-02-14T22:13:39.563Z,102450.78
2023-02-14T22:16:11.306Z,102414.00
2023-02-14T22:18:39.114Z,102458.69
2023-02-14T22:21:09.911Z,102456.94
2023-02-14T22:23:37.564Z,102438.84
2023-02-14T22:26:10.841Z,102432.84
2023-02-14T22:28:38.201Z,102411.38
2023-02-14T22:31:06.206Z,102451.72
2023-02-14T22:33:36.037Z,102454.28
2023-02-14T22:36:06.269Z,102451.91
2023-02-14T22:38:37.124Z,102439.94
2023-02-14T22:41:06.062Z,102438.53
2023-02-14T22:43:33.427Z,102409.34
2023-02-14T22:46:03.601Z,102447.81
2023-02-14T22:48:36.214Z,102433.78
2023-02-14T22:51:10.908Z,102413.59
2023-02-14T22:53:37.930Z,102448.88
2023-02-14T22:56:17.145Z,102441.19
2023-02-14T22:58:45.194Z,102417.47
2023-02-14T23:01:13.850Z,102442.16
2023-02-14T23:03:42.588Z,102441.38
2023-02-14T23:06:10.857Z,102405.47
2023-02-14T23:08:40.012Z,102406.44
2023-02-14T23:11:09.321Z,102439.00
2023-02-14T23:13:55.559Z,102433.00
2023-02-14T23:16:42.174Z,102423.63
2023-02-14T23:19:32.140Z,102421.19
2023-02-14T23:22:04.046Z,102406.84
2023-02-14T23:24:31.150Z,102409.59
2023-02-14T23:26:58.643Z,102396.53
2023-02-14T23:29:26.610Z,102421.28
2023-02-14T23:31:54.266Z,102391.66
2023-02-14T23:34:24.787Z,102389.66
2023-02-14T23:36:52.364Z,102401.88
2023-02-14T23:39:19.328Z,102425.00
2023-02-14T23:41:49.809Z,102422.41
2023-02-14T23:44:19.505Z,102408.03
2023-02-14T23:46:47.757Z,102416.72
2023-02-14T23:49:15.101Z,102386.25
2023-02-14T23:51:45.097Z,102420.56
2023-02-14T23:54:12.634Z,102417.09
2023-02-14T23:56:40.739Z,102421.56
2023-02-14T23:59:08.417Z,102419.00
